Turaif, Saudi Arabia
Current Conditions -  °F | °C
As of 10:00 AM on Saturday 25 Oct 2014 (Local Time) from OETR Reporting Station
Clear Clear  
Wind Chill: 72°   Ceiling: Unl
Heat Index: 72°   Visibility: 6mi
Dew Point: 48°   Wind: 9mph
Humidity: 43%   Direction: 110°ESE
Pressure: 30.12"   Gusts: NA
Location:  31.69°N, 38.73°E
Report Text: OETR 250700Z 11008KT CAVOK 22/09 Q1020 NOSIG
Loading
Personal Weather Stations






























Interactive Weather Map
Tropical Storm Tracking
New forecast layout! Learn more

10-Day Weather Forecast

Advertisements
Track Severe Weather on mobile